Time;durP1;ratioP1;P1;durP2;ratioP2;P2;SDS_P1;SDS_P2;PMS_P1;PMS_P2;Temp;Humidity;BMP_temperature;BMP_pressure;BME280_temperature;BME280_humidity;BME280_pressure;Samples;Min_cycle;Max_cycle;Signal;HPM_P1;HPM_P2
2023/10/21 00:02:02;;;;;;;4.35;1.77;;;12.30;99.90;;;;;;5042612;28;20064;-67
2023/10/21 00:04:29;;;;;;;2.92;1.23;;;12.30;99.90;;;;;;5030541;28;20486;-67
2023/10/21 00:06:54;;;;;;;2.03;1.30;;;12.40;99.90;;;;;;5029696;28;20022;-67
2023/10/21 00:09:20;;;;;;;1.67;1.13;;;12.40;99.90;;;;;;5029028;28;20034;-66
2023/10/21 00:11:46;;;;;;;2.22;1.27;;;12.40;99.90;;;;;;5030697;28;20042;-67
2023/10/21 00:14:12;;;;;;;2.17;1.15;;;12.40;99.90;;;;;;5030859;28;20052;-67
2023/10/21 00:16:38;;;;;;;3.53;1.10;;;12.40;99.90;;;;;;5026551;28;20038;-67
2023/10/21 00:19:03;;;;;;;2.53;1.40;;;12.40;99.90;;;;;;5030961;28;20095;-67
2023/10/21 00:21:29;;;;;;;1.90;1.20;;;12.40;99.90;;;;;;5027942;28;20032;-67
2023/10/21 00:23:55;;;;;;;2.20;1.35;;;12.40;99.90;;;;;;5035637;28;20045;-67
2023/10/21 00:26:20;;;;;;;1.52;1.20;;;12.40;99.90;;;;;;5031556;28;20030;-67
2023/10/21 00:28:46;;;;;;;2.17;1.25;;;12.40;99.90;;;;;;5032024;28;20033;-67
2023/10/21 00:31:11;;;;;;;1.73;1.55;;;12.40;99.90;;;;;;5024198;28;20688;-67
2023/10/21 00:33:37;;;;;;;6.43;1.60;;;12.40;99.90;;;;;;5028996;28;20030;-67
2023/10/21 00:36:03;;;;;;;1.30;1.20;;;12.40;99.90;;;;;;5033331;28;20083;-67
2023/10/21 00:38:29;;;;;;;10.18;1.30;;;12.50;99.90;;;;;;5027503;28;20089;-67
2023/10/21 00:40:56;;;;;;;4.43;1.35;;;12.50;99.90;;;;;;5031108;28;20042;-67
2023/10/21 00:43:38;;;;;;;1.92;1.30;;;12.50;99.90;;;;;;5033661;28;20052;-67
2023/10/21 00:46:30;;;;;;;3.00;1.20;;;12.50;99.90;;;;;;5028825;28;20517;-67
2023/10/21 00:48:56;;;;;;;4.20;1.30;;;12.50;99.90;;;;;;5035034;28;20136;-67
2023/10/21 00:51:22;;;;;;;2.65;1.05;;;12.50;99.90;;;;;;5028769;28;20105;-67
2023/10/21 00:53:48;;;;;;;3.55;0.95;;;12.60;99.90;;;;;;5026254;28;20034;-67
2023/10/21 00:56:14;;;;;;;1.90;1.25;;;12.60;99.90;;;;;;5010913;28;20057;-67
2023/10/21 00:58:40;;;;;;;2.33;1.20;;;12.60;99.90;;;;;;5032339;28;20128;-67
2023/10/21 01:01:07;;;;;;;3.10;0.90;;;12.60;99.90;;;;;;5032143;28;20111;-67
2023/10/21 01:03:34;;;;;;;3.75;0.93;;;12.60;99.90;;;;;;5032282;28;20034;-67
2023/10/21 01:06:00;;;;;;;1.50;1.20;;;12.60;99.90;;;;;;5030287;28;20174;-67
2023/10/21 01:08:26;;;;;;;2.33;1.63;;;12.60;99.90;;;;;;5030224;28;20109;-67
2023/10/21 01:10:52;;;;;;;8.73;1.38;;;12.70;99.90;;;;;;5028985;28;20033;-67
2023/10/21 01:13:18;;;;;;;4.80;1.42;;;12.60;99.90;;;;;;5033499;28;20029;-67
2023/10/21 01:15:44;;;;;;;2.47;1.13;;;12.60;99.90;;;;;;5033224;28;20028;-67
2023/10/21 01:18:09;;;;;;;2.33;1.30;;;12.60;99.90;;;;;;5033701;28;20040;-67
2023/10/21 01:20:39;;;;;;;2.85;1.23;;;12.60;99.90;;;;;;5032812;28;20024;-67
2023/10/21 01:23:08;;;;;;;2.80;1.10;;;12.70;99.90;;;;;;5031731;28;20120;-67
2023/10/21 01:25:35;;;;;;;1.58;1.30;;;12.70;99.90;;;;;;5029818;28;20040;-67
2023/10/21 01:28:01;;;;;;;6.55;1.30;;;12.70;99.90;;;;;;5032365;28;20522;-67
2023/10/21 01:30:27;;;;;;;2.28;0.95;;;12.80;99.90;;;;;;5031640;28;20045;-67
2023/10/21 01:32:52;;;;;;;1.73;1.10;;;12.80;99.90;;;;;;5030231;28;20022;-67
2023/10/21 01:35:18;;;;;;;1.10;1.00;;;12.80;99.90;;;;;;5030067;28;20037;-67
2023/10/21 01:37:45;;;;;;;5.40;1.45;;;12.80;99.90;;;;;;5030304;28;21170;-67
2023/10/21 01:40:12;;;;;;;2.88;1.20;;;12.80;99.90;;;;;;5032430;28;20049;-67
2023/10/21 01:42:41;;;;;;;2.45;1.17;;;12.80;99.90;;;;;;5035271;28;20029;-67
2023/10/21 01:45:08;;;;;;;3.42;1.15;;;12.80;99.90;;;;;;5026826;28;20037;-67
2023/10/21 01:47:35;;;;;;;1.90;1.02;;;12.80;99.90;;;;;;5029207;28;20033;-67
2023/10/21 01:50:07;;;;;;;1.65;1.08;;;12.80;99.90;;;;;;5030661;28;20108;-67
2023/10/21 01:52:34;;;;;;;2.25;0.80;;;12.80;99.90;;;;;;5030217;28;20455;-67
2023/10/21 01:55:03;;;;;;;0.85;0.70;;;12.80;99.90;;;;;;5027356;28;20042;-67
2023/10/21 01:57:29;;;;;;;5.85;1.13;;;12.80;99.90;;;;;;5027988;28;20034;-67
2023/10/21 01:59:54;;;;;;;6.07;0.80;;;12.80;99.90;;;;;;5031548;28;20372;-67
2023/10/21 02:02:20;;;;;;;2.10;1.00;;;12.80;99.90;;;;;;5029309;28;20018;-67
2023/10/21 02:04:45;;;;;;;1.30;0.90;;;12.80;99.90;;;;;;5028534;28;20022;-67
2023/10/21 02:07:11;;;;;;;3.65;0.93;;;12.80;99.90;;;;;;5030653;28;20018;-67
2023/10/21 02:09:37;;;;;;;4.38;1.17;;;12.80;99.90;;;;;;5030171;28;20040;-67
2023/10/21 02:12:02;;;;;;;3.35;1.10;;;12.80;99.90;;;;;;5028395;28;20029;-67
2023/10/21 02:14:28;;;;;;;2.72;1.27;;;12.80;99.90;;;;;;5031919;28;20438;-67
2023/10/21 02:16:55;;;;;;;2.58;1.00;;;12.80;99.90;;;;;;5028280;28;20065;-67
2023/10/21 02:19:21;;;;;;;2.78;1.17;;;12.80;99.90;;;;;;5026605;28;20079;-67
2023/10/21 02:21:47;;;;;;;1.98;1.10;;;12.80;99.90;;;;;;5029844;28;20029;-67
2023/10/21 02:24:13;;;;;;;1.48;0.93;;;12.90;99.90;;;;;;5029667;28;20065;-67
2023/10/21 02:26:40;;;;;;;1.35;0.77;;;12.80;99.90;;;;;;5030339;28;20430;-67
2023/10/21 02:29:06;;;;;;;2.20;0.82;;;12.80;99.90;;;;;;5029760;28;20021;-67
2023/10/21 02:31:31;;;;;;;0.77;0.77;;;12.80;99.90;;;;;;5025243;28;20040;-67
2023/10/21 02:33:57;;;;;;;1.23;0.60;;;12.80;99.90;;;;;;5030059;28;20029;-67
2023/10/21 02:36:24;;;;;;;1.13;0.63;;;12.80;99.90;;;;;;5029834;28;20033;-67
2023/10/21 02:38:53;;;;;;;0.90;0.60;;;12.80;99.90;;;;;;5031476;28;20092;-67
2023/10/21 02:41:19;;;;;;;3.17;0.80;;;12.80;99.90;;;;;;5032972;28;20071;-67
2023/10/21 02:43:45;;;;;;;0.60;0.60;;;12.80;99.90;;;;;;5032633;28;20029;-67
2023/10/21 02:46:12;;;;;;;0.80;0.63;;;12.80;99.90;;;;;;5030863;28;20022;-66
2023/10/21 02:48:38;;;;;;;1.05;0.77;;;12.90;99.90;;;;;;5029914;28;20040;-67
2023/10/21 02:51:14;;;;;;;1.05;0.63;;;12.90;99.90;;;;;;5030230;28;20061;-67
2023/10/21 02:53:41;;;;;;;2.08;1.00;;;12.90;99.90;;;;;;5027949;28;20029;-67
2023/10/21 02:56:11;;;;;;;1.60;1.00;;;12.90;99.90;;;;;;5027914;28;20117;-67
2023/10/21 02:58:37;;;;;;;2.45;1.80;;;12.90;99.90;;;;;;5027825;28;20039;-67
2023/10/21 03:01:14;;;;;;;5.03;2.00;;;12.90;99.90;;;;;;5028133;28;20092;-67
2023/10/21 03:03:41;;;;;;;2.72;2.15;;;12.90;99.90;;;;;;5031103;28;20104;-67
2023/10/21 03:06:08;;;;;;;3.53;2.60;;;12.90;99.90;;;;;;5031363;28;20120;-67
2023/10/21 03:08:35;;;;;;;4.78;3.20;;;12.90;99.90;;;;;;5030635;28;20021;-66
2023/10/21 03:11:03;;;;;;;5.40;3.78;;;12.90;99.90;;;;;;5030410;28;20077;-66
2023/10/21 03:13:30;;;;;;;10.40;4.22;;;12.90;99.90;;;;;;5030363;28;20021;-67
2023/10/21 03:15:56;;;;;;;6.93;4.95;;;12.90;99.90;;;;;;5027297;28;20566;-67
2023/10/21 03:18:21;;;;;;;9.18;5.78;;;12.90;99.90;;;;;;5030589;28;20117;-67
2023/10/21 03:20:50;;;;;;;8.95;5.32;;;12.90;99.90;;;;;;5030565;28;20391;-67
2023/10/21 03:23:16;;;;;;;9.77;6.10;;;12.90;99.90;;;;;;5025186;28;20071;-67
2023/10/21 03:25:41;;;;;;;10.00;6.28;;;12.90;99.90;;;;;;5028315;28;20053;-67
2023/10/21 03:28:07;;;;;;;12.25;6.80;;;12.80;99.90;;;;;;5034941;28;20491;-67
2023/10/21 03:30:32;;;;;;;8.45;5.78;;;12.80;99.90;;;;;;5029201;28;20041;-67
2023/10/21 03:32:58;;;;;;;9.50;5.90;;;12.80;99.90;;;;;;5029402;28;20032;-67
2023/10/21 03:35:23;;;;;;;9.65;6.43;;;12.90;99.90;;;;;;5027810;28;20026;-67
2023/10/21 03:37:49;;;;;;;10.80;7.18;;;12.80;99.90;;;;;;5026711;28;20606;-67
2023/10/21 03:40:14;;;;;;;12.02;5.82;;;12.80;99.90;;;;;;5030737;28;20025;-67
2023/10/21 03:42:40;;;;;;;9.15;7.05;;;12.80;99.90;;;;;;5027378;28;20103;-67
2023/10/21 03:45:07;;;;;;;8.45;6.00;;;12.80;99.90;;;;;;5028321;28;20045;-67
2023/10/21 03:47:33;;;;;;;8.93;6.20;;;12.90;99.90;;;;;;5028853;28;20029;-67
2023/10/21 03:49:59;;;;;;;10.00;6.38;;;12.90;99.90;;;;;;5029310;28;20187;-67
2023/10/21 03:52:24;;;;;;;8.68;6.63;;;12.90;99.90;;;;;;5028541;28;20128;-67
2023/10/21 03:54:50;;;;;;;9.30;5.90;;;12.80;99.90;;;;;;5034132;28;20029;-67
2023/10/21 03:57:16;;;;;;;7.85;4.97;;;12.80;99.90;;;;;;5022332;28;20033;-67
2023/10/21 03:59:41;;;;;;;6.65;4.78;;;12.80;99.90;;;;;;5027113;28;20497;-67
2023/10/21 04:02:07;;;;;;;7.38;5.03;;;12.80;99.90;;;;;;5028216;28;20034;-67
2023/10/21 04:04:33;;;;;;;9.32;3.75;;;12.80;99.90;;;;;;5028790;28;20623;-67
2023/10/21 04:06:59;;;;;;;5.72;3.90;;;12.70;99.90;;;;;;5028679;28;20490;-67
2023/10/21 04:09:26;;;;;;;14.20;4.60;;;12.70;99.90;;;;;;5028700;28;20026;-66
2023/10/21 04:11:53;;;;;;;8.93;4.65;;;12.70;99.90;;;;;;5025288;28;20029;-67
2023/10/21 04:14:18;;;;;;;11.77;4.85;;;12.70;99.90;;;;;;5021909;28;20033;-67
2023/10/21 04:16:47;;;;;;;8.02;5.05;;;12.70;99.90;;;;;;5026371;28;20034;-67
2023/10/21 04:19:13;;;;;;;6.72;5.18;;;12.70;99.90;;;;;;5025149;28;20022;-67
2023/10/21 04:21:38;;;;;;;9.15;4.53;;;12.70;99.90;;;;;;5028533;28;20480;-67
2023/10/21 04:24:04;;;;;;;5.57;3.35;;;12.70;99.90;;;;;;5028340;28;20033;-67
2023/10/21 04:26:30;;;;;;;5.53;3.67;;;12.70;99.90;;;;;;5025230;28;20025;-67
2023/10/21 04:28:56;;;;;;;6.82;3.20;;;12.70;99.90;;;;;;5024432;28;20026;-67
2023/10/21 04:31:21;;;;;;;5.32;3.53;;;12.70;99.90;;;;;;5025495;28;20041;-67
2023/10/21 04:33:47;;;;;;;6.13;3.78;;;12.70;99.90;;;;;;5026682;28;20038;-67
2023/10/21 04:36:17;;;;;;;10.27;3.10;;;12.70;99.90;;;;;;5029957;28;20022;-67
2023/10/21 04:38:44;;;;;;;6.32;3.60;;;12.70;99.90;;;;;;5025354;28;20069;-67
2023/10/21 04:41:10;;;;;;;13.15;4.40;;;12.70;99.90;;;;;;5031307;28;20368;-67
2023/10/21 04:43:36;;;;;;;9.45;4.57;;;12.70;99.90;;;;;;5032288;28;20025;-67
2023/10/21 04:46:01;;;;;;;7.93;4.82;;;12.70;99.90;;;;;;5031240;28;20032;-67
2023/10/21 04:48:27;;;;;;;8.60;5.68;;;12.70;99.90;;;;;;5032750;28;20029;-67
2023/10/21 04:50:52;;;;;;;8.05;5.68;;;12.80;99.90;;;;;;5032351;28;20509;-67
2023/10/21 04:53:18;;;;;;;7.93;5.07;;;12.70;99.90;;;;;;5022688;28;20173;-67
2023/10/21 04:55:44;;;;;;;6.93;5.05;;;12.70;99.90;;;;;;5026325;28;20037;-67
2023/10/21 04:58:09;;;;;;;6.88;4.22;;;12.70;99.90;;;;;;5032329;28;20033;-67
2023/10/21 05:00:35;;;;;;;8.25;4.88;;;12.70;99.90;;;;;;5032213;28;20486;-67
2023/10/21 05:03:00;;;;;;;8.65;4.68;;;12.70;99.90;;;;;;5030288;28;20040;-67
2023/10/21 05:05:26;;;;;;;5.43;4.25;;;12.70;99.90;;;;;;5034633;28;20029;-67
2023/10/21 05:07:52;;;;;;;5.07;3.30;;;12.70;99.90;;;;;;5032282;28;20418;-67
2023/10/21 05:10:18;;;;;;;4.65;3.70;;;12.60;99.90;;;;;;5032295;28;20045;-67
2023/10/21 05:12:44;;;;;;;3.58;2.47;;;12.60;99.90;;;;;;5033485;28;20032;-67
2023/10/21 05:15:10;;;;;;;3.22;1.83;;;12.60;99.90;;;;;;5031259;28;20034;-67
2023/10/21 05:17:35;;;;;;;3.55;2.00;;;12.60;99.90;;;;;;5031539;28;20384;-67
2023/10/21 05:20:02;;;;;;;2.10;1.35;;;12.60;99.90;;;;;;5032802;28;20032;-67
2023/10/21 05:22:28;;;;;;;2.88;1.40;;;12.60;99.90;;;;;;5032839;28;20057;-67
2023/10/21 05:24:54;;;;;;;2.25;2.05;;;12.60;99.90;;;;;;5037056;28;20064;-67
2023/10/21 05:27:20;;;;;;;2.72;1.13;;;12.60;99.90;;;;;;5032275;28;20532;-67
2023/10/21 05:29:45;;;;;;;4.45;1.42;;;12.50;99.90;;;;;;5034892;28;20080;-67
2023/10/21 05:32:11;;;;;;;1.52;1.27;;;12.50;99.90;;;;;;5033741;28;20030;-67
2023/10/21 05:34:39;;;;;;;2.08;1.40;;;12.50;99.90;;;;;;5031737;28;20669;-67
2023/10/21 05:37:04;;;;;;;5.45;1.73;;;12.50;99.90;;;;;;5030690;28;20100;-67
2023/10/21 05:39:30;;;;;;;1.33;1.23;;;12.50;99.90;;;;;;5025994;28;20534;-67
2023/10/21 05:41:55;;;;;;;3.95;1.20;;;12.60;99.90;;;;;;5031417;28;20021;-67
2023/10/21 05:44:21;;;;;;;2.97;0.88;;;12.60;99.90;;;;;;5031730;28;20036;-67
2023/10/21 05:46:47;;;;;;;2.05;1.13;;;12.60;99.90;;;;;;5029607;28;20028;-67
2023/10/21 05:49:13;;;;;;;1.10;1.00;;;12.60;99.90;;;;;;5024896;28;20083;-66
2023/10/21 05:51:38;;;;;;;1.00;0.85;;;12.60;99.90;;;;;;5029903;28;20025;-67
2023/10/21 05:54:04;;;;;;;2.58;0.90;;;12.60;99.90;;;;;;5027443;28;20037;-67
2023/10/21 05:56:29;;;;;;;2.30;1.10;;;12.60;99.90;;;;;;5029676;28;20724;-67
2023/10/21 05:58:55;;;;;;;1.92;0.93;;;12.60;99.90;;;;;;5030485;28;20091;-67
2023/10/21 06:01:21;;;;;;;0.75;0.75;;;12.70;99.90;;;;;;5029051;28;20056;-67
2023/10/21 06:03:47;;;;;;;1.60;0.88;;;12.60;99.90;;;;;;5023712;28;20029;-67
2023/10/21 06:06:13;;;;;;;5.05;0.90;;;12.60;99.90;;;;;;5029855;28;20421;-67
2023/10/21 06:08:38;;;;;;;2.35;1.10;;;12.60;99.90;;;;;;5029778;28;20100;-67
2023/10/21 06:11:04;;;;;;;6.20;1.90;;;12.60;99.90;;;;;;5027982;28;20060;-68
2023/10/21 06:13:30;;;;;;;3.17;0.88;;;12.60;99.90;;;;;;5029154;28;20498;-67
2023/10/21 06:15:55;;;;;;;2.78;0.90;;;12.70;99.90;;;;;;5030423;28;20033;-67
2023/10/21 06:18:21;;;;;;;3.63;1.00;;;12.70;99.90;;;;;;5027061;28;20109;-67
2023/10/21 06:20:49;;;;;;;1.75;0.80;;;12.70;99.90;;;;;;5029863;28;20049;-67
2023/10/21 06:23:15;;;;;;;2.40;0.98;;;12.70;99.90;;;;;;5029586;28;20022;-67
2023/10/21 06:25:40;;;;;;;1.23;0.73;;;12.70;99.90;;;;;;5025147;28;20129;-67
2023/10/21 06:28:07;;;;;;;1.85;1.10;;;12.70;99.90;;;;;;5031170;28;20033;-67
2023/10/21 06:30:35;;;;;;;1.35;0.90;;;12.80;99.90;;;;;;5028020;28;20398;-67
2023/10/21 06:33:02;;;;;;;2.30;0.90;;;12.80;99.90;;;;;;5028825;28;20026;-67
2023/10/21 06:35:28;;;;;;;1.60;1.10;;;12.90;99.90;;;;;;5036861;28;20091;-67
2023/10/21 06:37:54;;;;;;;2.47;0.63;;;12.90;99.90;;;;;;5027847;28;20037;-67
2023/10/21 06:40:20;;;;;;;1.30;0.80;;;13.00;99.90;;;;;;5028914;28;20529;-67
2023/10/21 06:42:46;;;;;;;3.50;0.73;;;13.10;99.90;;;;;;5030554;28;20104;-67
2023/10/21 06:45:11;;;;;;;3.40;0.65;;;13.20;99.90;;;;;;5027100;28;20519;-67
2023/10/21 06:47:37;;;;;;;3.00;0.80;;;13.20;99.90;;;;;;5029642;28;20033;-67
2023/10/21 06:50:04;;;;;;;1.10;0.40;;;13.20;99.90;;;;;;5028519;28;20131;-67
2023/10/21 06:52:30;;;;;;;0.82;0.57;;;13.30;99.90;;;;;;5024513;28;20022;-67
2023/10/21 06:54:55;;;;;;;4.97;1.08;;;13.30;99.90;;;;;;5030048;28;20025;-68
2023/10/21 06:57:21;;;;;;;2.90;1.10;;;13.40;99.90;;;;;;5032436;28;20029;-67
2023/10/21 06:59:47;;;;;;;1.65;0.50;;;13.40;99.90;;;;;;5028006;28;20048;-67
2023/10/21 07:02:13;;;;;;;2.38;0.73;;;13.40;99.90;;;;;;5029222;28;20037;-67
2023/10/21 07:04:39;;;;;;;0.65;0.52;;;13.40;99.90;;;;;;5028605;28;20044;-67
2023/10/21 07:07:04;;;;;;;0.88;0.60;;;13.30;99.90;;;;;;5031154;28;20022;-67
2023/10/21 07:09:30;;;;;;;1.45;0.70;;;13.30;99.90;;;;;;5031823;28;20515;-67
2023/10/21 07:11:56;;;;;;;4.97;0.70;;;13.40;99.90;;;;;;5031066;28;20034;-67
2023/10/21 07:14:21;;;;;;;0.47;0.40;;;13.40;99.90;;;;;;5021657;28;20052;-67
2023/10/21 07:16:47;;;;;;;1.15;0.98;;;13.50;99.90;;;;;;5029537;28;20033;-67
2023/10/21 07:19:13;;;;;;;1.08;0.60;;;13.60;99.90;;;;;;5027140;28;20017;-67
2023/10/21 07:21:38;;;;;;;2.28;0.52;;;13.60;99.90;;;;;;5032514;28;20483;-67
2023/10/21 07:24:04;;;;;;;1.20;0.40;;;13.50;99.90;;;;;;5022127;28;20029;-67
2023/10/21 07:26:30;;;;;;;1.05;0.60;;;13.50;99.90;;;;;;5025562;28;20096;-68
2023/10/21 07:28:55;;;;;;;0.52;0.40;;;13.50;99.90;;;;;;5031087;28;20108;-67
2023/10/21 07:31:21;;;;;;;0.38;0.38;;;13.50;99.90;;;;;;5028524;28;20087;-67
2023/10/21 07:33:46;;;;;;;1.13;0.45;;;13.60;99.90;;;;;;5028866;28;20034;-67
2023/10/21 07:36:12;;;;;;;0.88;0.40;;;13.50;99.90;;;;;;5034445;28;20087;-67
2023/10/21 07:38:38;;;;;;;0.90;0.57;;;13.60;99.90;;;;;;5028005;28;20029;-67
2023/10/21 07:41:10;;;;;;;5.40;0.50;;;13.70;99.90;;;;;;5028689;28;20061;-67
2023/10/21 07:43:36;;;;;;;2.13;0.52;;;13.80;99.90;;;;;;5028604;28;20036;-67
2023/10/21 07:46:03;;;;;;;0.45;0.20;;;14.00;99.90;;;;;;5030658;28;20105;-67
2023/10/21 07:48:29;;;;;;;1.75;0.60;;;14.20;99.90;;;;;;5030141;28;20121;-67
2023/10/21 07:50:55;;;;;;;1.60;0.47;;;14.20;99.90;;;;;;5029721;28;20454;-67
2023/10/21 07:53:20;;;;;;;0.68;0.30;;;14.10;99.90;;;;;;5028359;28;20147;-67
2023/10/21 07:55:49;;;;;;;0.77;0.45;;;14.00;99.90;;;;;;5024725;28;20029;-67
2023/10/21 07:58:15;;;;;;;1.45;0.50;;;13.90;99.90;;;;;;5027675;28;20053;-67
2023/10/21 08:00:41;;;;;;;0.47;0.38;;;13.80;99.90;;;;;;5028566;28;20017;-67
2023/10/21 08:03:07;;;;;;;0.52;0.52;;;13.70;99.90;;;;;;5028561;28;20425;-67
2023/10/21 08:05:33;;;;;;;3.25;0.65;;;13.70;99.90;;;;;;5028812;28;20024;-67
2023/10/21 08:07:58;;;;;;;0.50;0.50;;;13.60;99.90;;;;;;5027141;28;20545;-67
2023/10/21 08:10:24;;;;;;;1.17;0.30;;;13.60;99.90;;;;;;5024043;28;20030;-67
2023/10/21 08:12:50;;;;;;;1.13;0.60;;;13.50;99.90;;;;;;5028749;28;20538;-67
2023/10/21 08:15:15;;;;;;;1.50;0.40;;;13.40;99.90;;;;;;5033912;28;20552;-67
2023/10/21 08:17:41;;;;;;;0.60;0.17;;;13.30;99.90;;;;;;5036766;28;20487;-67
2023/10/21 08:20:07;;;;;;;2.28;0.47;;;13.40;99.90;;;;;;5032160;28;20104;-67
2023/10/21 08:22:33;;;;;;;0.77;0.55;;;13.40;99.90;;;;;;5032700;28;20104;-67
2023/10/21 08:24:59;;;;;;;6.13;1.00;;;13.40;99.90;;;;;;5032122;28;20407;-67
2023/10/21 08:27:25;;;;;;;1.50;1.17;;;13.40;99.90;;;;;;5031427;28;20052;-67
2023/10/21 08:29:53;;;;;;;4.70;2.00;;;13.50;99.90;;;;;;5031342;28;20033;-67
2023/10/21 08:32:18;;;;;;;2.10;1.63;;;13.60;99.90;;;;;;5030530;28;20056;-67
2023/10/21 08:34:44;;;;;;;1.23;1.13;;;13.60;99.90;;;;;;5032330;28;20088;-67
2023/10/21 08:37:10;;;;;;;2.55;1.83;;;13.70;99.90;;;;;;5029965;28;20025;-67
2023/10/21 08:39:35;;;;;;;0.80;0.70;;;13.70;99.90;;;;;;5024091;28;20067;-67
2023/10/21 08:42:02;;;;;;;1.80;0.40;;;14.00;99.90;;;;;;5045999;28;20021;-67
2023/10/21 08:44:28;;;;;;;0.70;0.60;;;14.10;99.90;;;;;;5032553;28;20096;-67
2023/10/21 08:46:54;;;;;;;0.57;0.28;;;14.30;99.90;;;;;;5030571;28;20030;-67
2023/10/21 08:49:20;;;;;;;0.45;0.45;;;14.30;99.90;;;;;;5036176;28;20025;-67
2023/10/21 08:51:47;;;;;;;2.22;0.80;;;14.40;99.90;;;;;;5032910;28;20411;-67
2023/10/21 08:54:14;;;;;;;0.60;0.60;;;14.40;99.90;;;;;;5033287;28;20026;-67
2023/10/21 08:56:39;;;;;;;6.55;1.00;;;14.40;99.90;;;;;;5030714;28;20025;-67
2023/10/21 08:59:05;;;;;;;2.17;0.90;;;14.50;99.90;;;;;;5032303;28;20051;-67
2023/10/21 09:01:31;;;;;;;1.55;0.60;;;14.70;99.90;;;;;;5031468;28;20029;-67
2023/10/21 09:03:57;;;;;;;0.77;0.22;;;14.60;99.90;;;;;;5035076;28;20053;-67
2023/10/21 09:06:23;;;;;;;0.50;0.30;;;14.60;99.90;;;;;;5034174;28;20027;-67
2023/10/21 09:08:49;;;;;;;1.90;0.90;;;14.50;99.90;;;;;;5028604;28;20368;-67
2023/10/21 09:11:18;;;;;;;3.78;2.00;;;14.50;99.90;;;;;;5031017;28;20513;-67
2023/10/21 09:13:44;;;;;;;3.80;1.92;;;14.40;99.90;;;;;;5035183;28;20083;-67
2023/10/21 09:16:25;;;;;;;6.20;3.20;;;14.30;99.90;;;;;;4988628;28;20041;-67
2023/10/21 09:18:57;;;;;;;2.55;1.00;;;14.10;99.90;;;;;;5032100;28;20414;-67
2023/10/21 09:21:43;;;;;;;0.90;0.40;;;14.00;99.90;;;;;;5030722;28;20028;-67
2023/10/21 09:24:11;;;;;;;11.18;4.70;;;14.00;99.90;;;;;;5029423;28;20084;-67
2023/10/21 09:26:41;;;;;;;2.20;1.23;;;14.00;99.90;;;;;;5031418;28;20115;-67
2023/10/21 09:29:12;;;;;;;1.55;1.08;;;14.10;99.90;;;;;;5027583;28;20029;-67
2023/10/21 09:31:44;;;;;;;3.03;1.55;;;14.20;99.90;;;;;;5025630;28;20025;-67
2023/10/21 09:34:10;;;;;;;2.35;1.48;;;14.70;99.90;;;;;;5032088;28;20387;-67
2023/10/21 09:36:40;;;;;;;15.10;6.80;;;15.20;99.90;;;;;;5024619;28;20430;-68
2023/10/21 09:39:05;;;;;;;5.43;2.40;;;15.90;99.90;;;;;;5028408;28;20029;-68
2023/10/21 09:41:31;;;;;;;11.57;3.95;;;16.60;99.90;;;;;;5027714;28;20026;-67
2023/10/21 09:44:00;;;;;;;8.63;3.47;;;16.90;99.90;;;;;;5030150;28;20041;-68
2023/10/21 09:46:28;;;;;;;4.93;1.98;;;16.80;99.90;;;;;;5029003;28;20025;-67
2023/10/21 09:48:59;;;;;;;3.75;1.55;;;17.00;99.90;;;;;;5025728;28;20025;-67
2023/10/21 09:51:27;;;;;;;5.90;2.67;;;17.40;99.90;;;;;;5030894;28;20052;-67
2023/10/21 09:53:56;;;;;;;7.63;3.00;;;17.40;99.90;;;;;;5025011;28;20029;-68
2023/10/21 09:56:24;;;;;;;3.78;1.75;;;17.30;99.90;;;;;;5027676;28;20456;-68
2023/10/21 09:58:50;;;;;;;1.75;0.88;;;17.20;99.90;;;;;;5030381;28;20021;-68
2023/10/21 10:01:23;;;;;;;4.93;1.65;;;16.90;99.90;;;;;;5023778;28;20395;-68
2023/10/21 10:03:51;;;;;;;5.93;1.42;;;16.70;99.90;;;;;;5028628;28;20072;-67
2023/10/21 10:06:19;;;;;;;2.60;1.50;;;16.90;99.90;;;;;;5028501;28;20053;-67
2023/10/21 10:08:47;;;;;;;1.80;0.75;;;16.90;99.90;;;;;;5028042;28;20021;-67
2023/10/21 10:11:15;;;;;;;7.47;3.17;;;16.80;99.90;;;;;;5024507;28;20048;-67
2023/10/21 10:13:48;;;;;;;2.22;1.20;;;16.80;99.90;;;;;;5032504;28;20026;-67
2023/10/21 10:16:25;;;;;;;2.83;0.80;;;16.70;99.90;;;;;;5031784;28;20049;-68
2023/10/21 10:18:56;;;;;;;4.95;1.80;;;16.60;99.90;;;;;;5029101;28;20040;-68
2023/10/21 10:21:22;;;;;;;4.25;1.67;;;16.50;99.90;;;;;;5027111;28;20021;-67
2023/10/21 10:23:50;;;;;;;9.38;4.40;;;16.40;99.90;;;;;;5027124;28;20026;-67
2023/10/21 10:26:38;;;;;;;3.10;1.55;;;16.30;99.90;;;;;;5027882;28;20406;-67
2023/10/21 10:29:25;;;;;;;5.35;3.00;;;16.30;99.90;;;;;;5021178;28;20025;-68
2023/10/21 10:32:14;;;;;;;2.55;1.50;;;16.20;99.90;;;;;;5013302;28;20060;-68
2023/10/21 10:34:53;;;;;;;5.80;2.40;;;16.10;99.90;;;;;;5029477;28;20491;-67
2023/10/21 10:37:35;;;;;;;4.75;2.47;;;16.40;99.90;;;;;;5023082;28;20030;-67
2023/10/21 10:40:18;;;;;;;6.13;2.58;;;16.50;99.90;;;;;;5027972;28;20029;-67
2023/10/21 10:42:43;;;;;;;6.03;2.25;;;16.60;99.90;;;;;;5026996;28;20057;-67
2023/10/21 10:45:09;;;;;;;4.55;1.98;;;16.60;99.90;;;;;;5025364;28;20072;-67
2023/10/21 10:47:37;;;;;;;29.55;15.23;;;16.70;99.90;;;;;;5022822;28;20021;-67
2023/10/21 10:50:11;;;;;;;14.48;7.60;;;16.80;99.90;;;;;;5029382;28;20032;-67
2023/10/21 10:52:37;;;;;;;22.45;9.05;;;17.00;99.90;;;;;;5024697;28;20060;-67
2023/10/21 10:55:03;;;;;;;12.75;6.10;;;17.00;99.90;;;;;;5039922;28;20492;-67
2023/10/21 10:57:29;;;;;;;7.13;4.05;;;17.10;99.90;;;;;;5026264;28;20018;-67
2023/10/21 10:59:55;;;;;;;6.25;2.80;;;17.10;99.90;;;;;;5026243;28;20037;-67
2023/10/21 11:02:21;;;;;;;3.47;1.08;;;17.10;99.90;;;;;;5021565;28;20434;-67
2023/10/21 11:04:48;;;;;;;2.65;1.10;;;17.20;99.90;;;;;;5028041;28;20025;-67
2023/10/21 11:07:18;;;;;;;3.55;0.63;;;17.10;99.90;;;;;;5028521;28;20148;-67
2023/10/21 11:09:44;;;;;;;2.95;0.73;;;17.10;99.90;;;;;;5024894;28;20036;-67
2023/10/21 11:12:09;;;;;;;4.40;0.90;;;17.20;99.90;;;;;;5021322;28;20050;-67
2023/10/21 11:14:35;;;;;;;0.93;0.30;;;17.20;99.90;;;;;;5026111;28;20707;-68
2023/10/21 11:17:02;;;;;;;1.25;0.57;;;17.20;99.90;;;;;;5029117;28;20500;-67
2023/10/21 11:19:30;;;;;;;2.92;0.93;;;17.20;99.90;;;;;;5028262;28;20556;-67
2023/10/21 11:21:55;;;;;;;5.30;1.42;;;17.30;99.90;;;;;;5029521;28;20025;-67
2023/10/21 11:24:22;;;;;;;4.45;2.00;;;17.10;99.90;;;;;;5027560;28;20522;-67
2023/10/21 11:26:49;;;;;;;8.35;4.22;;;17.00;99.90;;;;;;5027439;28;20032;-67
2023/10/21 11:29:17;;;;;;;8.55;4.07;;;17.10;99.90;;;;;;5024803;28;20034;-67
2023/10/21 11:31:43;;;;;;;5.25;1.63;;;17.10;99.90;;;;;;5013700;28;21051;-67
2023/10/21 11:34:12;;;;;;;6.50;2.70;;;17.00;99.90;;;;;;5024503;28;20053;-68
2023/10/21 11:36:46;;;;;;;5.15;1.90;;;17.00;99.90;;;;;;5024314;28;20030;-67
2023/10/21 11:39:14;;;;;;;10.85;5.47;;;16.90;99.90;;;;;;5028799;28;20033;-67
2023/10/21 11:41:52;;;;;;;13.60;5.60;;;17.00;99.90;;;;;;5027005;28;20026;-67
2023/10/21 11:44:26;;;;;;;12.80;4.53;;;16.90;99.90;;;;;;5026925;28;20022;-67
2023/10/21 11:46:59;;;;;;;11.55;3.90;;;16.90;99.90;;;;;;5026551;28;20026;-67
2023/10/21 11:49:25;;;;;;;6.53;2.23;;;16.90;99.90;;;;;;5029731;28;20569;-68
2023/10/21 11:51:52;;;;;;;6.03;1.90;;;16.90;99.90;;;;;;5030880;28;20030;-67
2023/10/21 11:54:33;;;;;;;11.68;5.25;;;16.70;99.90;;;;;;5035015;28;20025;-67
2023/10/21 12:26:47;;;;;;;2.67;0.82;;;16.20;99.90;;;;;;5021842;28;20038;-67
2023/10/21 12:37:30;;;;;;;7.43;1.33;;;16.10;99.90;;;;;;5033839;28;20036;-67
2023/10/21 12:39:57;;;;;;;2.90;0.80;;;16.00;99.90;;;;;;5032991;28;20029;-67
2023/10/21 12:44:57;;;;;;;7.93;1.42;;;15.80;99.90;;;;;;5030921;28;20017;-67
2023/10/21 12:47:24;;;;;;;6.72;1.00;;;15.60;99.90;;;;;;5031857;28;20053;-67
2023/10/21 12:49:50;;;;;;;3.42;0.85;;;15.50;99.90;;;;;;5030782;28;20458;-67
2023/10/21 12:52:16;;;;;;;5.10;0.95;;;15.60;99.90;;;;;;5033858;28;20514;-67
2023/10/21 12:54:43;;;;;;;2.30;0.75;;;15.80;99.90;;;;;;5033026;28;20579;-66
2023/10/21 12:57:10;;;;;;;3.22;0.82;;;15.90;99.90;;;;;;5031893;28;20018;-67
2023/10/21 12:59:36;;;;;;;1.55;0.75;;;16.00;99.90;;;;;;5032071;28;20024;-67
2023/10/21 13:02:07;;;;;;;1.92;0.70;;;16.00;99.90;;;;;;5033676;28;20021;-67
2023/10/21 13:04:34;;;;;;;3.50;0.90;;;16.00;99.90;;;;;;5031319;28;20025;-67
2023/10/21 13:07:00;;;;;;;8.18;1.13;;;16.00;99.90;;;;;;5030691;28;20029;-67
2023/10/21 13:09:28;;;;;;;8.65;1.25;;;15.90;99.90;;;;;;5033331;28;20017;-67
2023/10/21 13:11:54;;;;;;;4.25;1.40;;;15.90;99.90;;;;;;5030612;28;20029;-67
2023/10/21 13:14:27;;;;;;;8.98;1.10;;;16.00;99.90;;;;;;5033812;28;20033;-67
2023/10/21 13:16:53;;;;;;;8.32;1.30;;;15.90;99.90;;;;;;5032387;28;20385;-67
2023/10/21 13:19:19;;;;;;;4.88;0.90;;;16.00;99.90;;;;;;5029653;28;20036;-67
2023/10/21 13:21:45;;;;;;;5.93;0.73;;;16.10;99.90;;;;;;5029974;28;20577;-68
2023/10/21 13:24:10;;;;;;;5.80;1.13;;;16.20;99.90;;;;;;5031691;28;20526;-67
2023/10/21 13:26:37;;;;;;;7.70;2.10;;;16.30;99.90;;;;;;5032409;28;20496;-68